createdAt,value
2024-01-21T00:07:07.380Z,-0.08
2024-01-21T00:17:11.643Z,-0.07
2024-01-21T00:27:14.123Z,-0.08
2024-01-21T00:37:17.961Z,-0.39
2024-01-21T00:47:21.376Z,-0.44
2024-01-21T00:57:25.168Z,-0.62
2024-01-21T01:07:27.602Z,-0.63
2024-01-21T01:17:31.383Z,-0.66
2024-01-21T01:27:33.881Z,-0.78
2024-01-21T01:37:37.656Z,-0.86
2024-01-21T01:47:41.175Z,-0.90
2024-01-21T01:57:46.650Z,-0.98
2024-01-21T02:07:49.332Z,-1.19
2024-01-21T02:17:53.197Z,-1.36
2024-01-21T02:27:57.165Z,-1.16
2024-01-21T02:37:59.717Z,-1.16
2024-01-21T02:48:03.824Z,-1.32
2024-01-21T02:58:06.407Z,-1.63
2024-01-21T03:08:10.312Z,-1.37
2024-01-21T03:18:12.909Z,-1.26
2024-01-21T03:28:16.756Z,-1.29
2024-01-21T03:38:19.295Z,-1.35
2024-01-21T03:48:23.335Z,-1.70
2024-01-21T03:58:25.898Z,-1.61
2024-01-21T04:08:29.681Z,-1.64
2024-01-21T04:18:33.703Z,-1.60
2024-01-21T04:28:39.613Z,-1.61
2024-01-21T04:38:42.069Z,-1.59
2024-01-21T04:48:46.502Z,-1.56
2024-01-21T04:58:49.874Z,-1.63
2024-01-21T05:08:53.696Z,-1.52
2024-01-21T05:18:57.458Z,-1.59
2024-01-21T05:29:01.987Z,-1.59
2024-01-21T05:39:05.248Z,-1.69
2024-01-21T05:49:09.157Z,-1.70
2024-01-21T05:59:11.820Z,-1.71
2024-01-21T06:09:15.742Z,-1.67
2024-01-21T06:19:18.239Z,-1.48
2024-01-21T06:29:22.089Z,-1.37
2024-01-21T06:39:24.563Z,-1.42
2024-01-21T06:49:28.391Z,-1.41
2024-01-21T06:59:30.886Z,-1.64
2024-01-21T07:09:34.730Z,-1.79
2024-01-21T07:19:37.298Z,-1.78
2024-01-21T07:29:41.124Z,-1.85
2024-01-21T07:39:43.703Z,-1.56
2024-01-21T07:49:48.709Z,-1.31
2024-01-21T07:59:51.247Z,-1.26
2024-01-21T08:09:55.111Z,-1.11
2024-01-21T08:19:57.706Z,-1.02
2024-01-21T08:30:03.726Z,-0.84
2024-01-21T08:40:07.934Z,-0.54
2024-01-21T08:50:12.577Z,-0.24
2024-01-21T09:00:15.657Z,-0.05
2024-01-21T09:10:19.506Z,0.19
2024-01-21T09:20:21.981Z,0.29
2024-01-21T09:30:26.034Z,0.27
2024-01-21T09:40:28.536Z,0.47
2024-01-21T09:50:32.743Z,0.52
2024-01-21T10:00:35.299Z,0.82
2024-01-21T10:10:39.058Z,1.19
2024-01-21T10:20:41.552Z,1.24
2024-01-21T10:30:45.929Z,1.80
2024-01-21T10:40:49.184Z,2.40
2024-01-21T10:50:53.224Z,2.76
2024-01-21T11:01:02.267Z,3.14
2024-01-21T11:11:16.416Z,3.13
2024-01-21T11:21:21.221Z,3.28
2024-01-21T11:31:25.024Z,3.33
2024-01-21T11:41:33.767Z,2.96
2024-01-21T11:51:37.680Z,3.10
2024-01-21T12:01:41.059Z,3.64
2024-01-21T12:11:44.951Z,4.09
2024-01-21T12:21:48.765Z,5.73
2024-01-21T12:31:52.564Z,6.84
2024-01-21T12:41:55.008Z,7.96
2024-01-21T12:51:58.869Z,7.99
2024-01-21T13:02:02.063Z,10.11
2024-01-21T13:12:06.364Z,11.31
2024-01-21T13:22:08.945Z,10.60
2024-01-21T13:32:12.785Z,9.66
2024-01-21T13:42:15.318Z,8.79
2024-01-21T13:52:19.162Z,8.53
2024-01-21T14:02:23.535Z,8.40
2024-01-21T14:12:27.471Z,8.14
2024-01-21T14:22:29.926Z,8.53
2024-01-21T14:32:33.779Z,9.47
2024-01-21T14:42:36.643Z,9.80
2024-01-21T14:52:40.483Z,9.44
2024-01-21T15:02:43.115Z,8.51
2024-01-21T15:12:47.424Z,8.02
2024-01-21T15:22:49.995Z,7.68
2024-01-21T15:32:53.861Z,7.36
2024-01-21T15:42:56.519Z,7.26
2024-01-21T15:53:00.479Z,7.07
2024-01-21T16:03:04.850Z,6.82
2024-01-21T16:13:08.989Z,6.49
2024-01-21T16:23:12.075Z,6.15
2024-01-21T16:33:16.259Z,6.16
2024-01-21T16:43:18.760Z,6.10
2024-01-21T16:53:29.915Z,6.14
2024-01-21T17:03:32.740Z,6.09
2024-01-21T17:13:36.615Z,5.83
2024-01-21T17:23:39.317Z,5.48
2024-01-21T17:33:44.171Z,5.15
2024-01-21T17:43:47.046Z,5.52
2024-01-21T17:53:50.857Z,5.26
2024-01-21T18:03:53.550Z,5.14
2024-01-21T18:13:57.370Z,5.16
2024-01-21T18:23:59.910Z,5.15
2024-01-21T18:34:03.815Z,5.18
2024-01-21T18:44:06.414Z,5.09
2024-01-21T18:54:10.336Z,4.85
2024-01-21T19:04:14.588Z,4.80
2024-01-21T19:14:18.684Z,4.51
2024-01-21T19:24:22.016Z,4.72
2024-01-21T19:34:25.921Z,4.69
2024-01-21T19:44:29.203Z,4.83
2024-01-21T19:54:36.088Z,4.59
2024-01-21T20:04:38.570Z,4.65
2024-01-21T20:14:42.633Z,4.66
2024-01-21T20:24:46.700Z,4.35
2024-01-21T20:34:50.735Z,4.29
2024-01-21T20:44:53.206Z,4.45
2024-01-21T20:54:58.832Z,4.18
2024-01-21T21:05:01.345Z,4.18
2024-01-21T21:15:05.916Z,4.33
2024-01-21T21:25:09.314Z,4.35
2024-01-21T21:35:13.126Z,4.32
2024-01-21T21:45:16.174Z,4.26
2024-01-21T21:55:20.158Z,4.13
2024-01-21T22:05:22.628Z,3.94
2024-01-21T22:15:26.464Z,4.08
2024-01-21T22:25:30.376Z,4.07
2024-01-21T22:35:34.487Z,4.14
2024-01-21T22:45:37.023Z,4.05
2024-01-21T22:55:40.946Z,3.98
2024-01-21T23:05:43.580Z,3.92
2024-01-21T23:15:47.718Z,3.70
2024-01-21T23:25:50.232Z,3.55
2024-01-21T23:35:54.051Z,3.49
2024-01-21T23:45:56.542Z,3.34
2024-01-21T23:56:00.373Z,3.32
